Time;durP1;ratioP1;P1;durP2;ratioP2;P2;SDS_P1;SDS_P2;PMS_P1;PMS_P2;Temp;Humidity;BMP_temperature;BMP_pressure;BME280_temperature;BME280_humidity;BME280_pressure;Samples;Min_cycle;Max_cycle;Signal;HPM_P1;HPM_P2
2022/08/06 00:02:50;;;;;;;0.47;0.10;;;24.40;41.30;;;;;;6285435;27;20035;-42
2022/08/06 00:05:52;;;;;;;0.50;0.30;;;24.50;41.30;;;;;;6308652;27;20096;-42
2022/08/06 00:08:54;;;;;;;0.73;0.30;;;24.50;41.20;;;;;;6303138;27;20149;-41
2022/08/06 00:11:57;;;;;;;0.52;0.32;;;24.30;41.00;;;;;;6304055;27;20593;-42
2022/08/06 00:15:01;;;;;;;0.40;0.20;;;24.40;41.00;;;;;;6303976;27;20046;-43
2022/08/06 00:18:14;;;;;;;0.45;0.10;;;24.30;40.80;;;;;;6293865;27;20082;-40
2022/08/06 00:21:17;;;;;;;0.20;0.20;;;24.40;40.80;;;;;;6318858;27;20066;-41
2022/08/06 00:24:39;;;;;;;0.15;0.15;;;24.30;40.70;;;;;;6290782;27;20031;-41
2022/08/06 00:27:41;;;;;;;0.20;0.13;;;24.20;40.60;;;;;;6319969;27;20120;-41
2022/08/06 00:30:51;;;;;;;0.22;0.10;;;24.30;40.60;;;;;;6322032;27;20043;-40
2022/08/06 00:33:55;;;;;;;0.30;0.10;;;24.30;40.50;;;;;;6320108;27;20042;-41
2022/08/06 00:36:59;;;;;;;0.20;0.10;;;24.30;40.50;;;;;;6317376;27;20044;-40
2022/08/06 00:40:01;;;;;;;0.30;0.13;;;24.30;40.40;;;;;;6321872;27;20039;-43
2022/08/06 00:43:04;;;;;;;0.30;0.17;;;24.30;40.40;;;;;;6320543;27;20046;-41
2022/08/06 00:46:10;;;;;;;0.28;0.20;;;24.50;40.40;;;;;;6322656;27;20053;-40
2022/08/06 00:49:17;;;;;;;0.38;0.20;;;24.30;40.20;;;;;;6325764;27;20160;-42
2022/08/06 00:52:39;;;;;;;;;;;24.20;40.20;;;;;;6313917;27;20053;-41
2022/08/06 00:55:41;;;;;;;0.20;0.15;;;24.30;40.30;;;;;;6328092;27;19931;-41
2022/08/06 00:59:02;;;;;;;;;;;24.30;40.20;;;;;;6299382;27;20050;-39
2022/08/06 01:02:05;;;;;;;0.40;0.22;;;24.30;40.30;;;;;;6327988;27;20010;-41
2022/08/06 01:05:15;;;;;;;0.17;0.17;;;24.30;40.30;;;;;;6314053;27;20166;-40
2022/08/06 01:08:37;;;;;;;0.30;0.20;;;24.30;40.20;;;;;;6294136;27;20277;-41
2022/08/06 01:11:42;;;;;;;0.43;0.20;;;24.30;40.10;;;;;;6304066;27;20222;-42
2022/08/06 01:14:44;;;;;;;0.63;0.17;;;24.30;40.10;;;;;;6306492;27;20671;-40
2022/08/06 01:18:09;;;;;;;0.20;0.15;;;24.30;40.00;;;;;;6282500;27;20163;-43
2022/08/06 01:21:34;;;;;;;0.50;0.20;;;24.20;40.00;;;;;;6287338;27;20089;-42
2022/08/06 01:25:18;;;;;;;0.38;0.20;;;24.10;39.80;;;;;;6288365;27;20748;-41
2022/08/06 01:28:25;;;;;;;0.10;0.10;;;24.20;39.90;;;;;;6307226;27;20139;-43
2022/08/06 01:31:36;;;;;;;0.65;0.20;;;24.20;39.90;;;;;;6287359;27;20830;-41
2022/08/06 01:34:47;;;;;;;0.25;0.10;;;24.30;40.00;;;;;;6304499;27;20083;-40
2022/08/06 01:38:07;;;;;;;0.17;0.17;;;24.20;39.80;;;;;;6289896;27;20314;-42
2022/08/06 01:41:38;;;;;;;0.30;0.10;;;24.30;39.80;;;;;;6310194;27;21298;-41
2022/08/06 01:45:01;;;;;;;0.10;0.10;;;24.30;39.90;;;;;;6274705;27;20392;-40
2022/08/06 01:48:08;;;;;;;0.45;0.20;;;24.20;39.80;;;;;;6287609;27;20369;-43
2022/08/06 01:51:10;;;;;;;0.30;0.10;;;24.30;39.90;;;;;;6314433;27;21064;-42
2022/08/06 01:54:37;;;;;;;0.43;0.25;;;24.30;39.90;;;;;;6297286;27;20231;-44
2022/08/06 01:57:46;;;;;;;0.40;0.20;;;24.20;39.80;;;;;;6314691;27;20405;-40
2022/08/06 02:01:12;;;;;;;0.20;0.20;;;24.20;39.80;;;;;;6266779;27;20038;-42
2022/08/06 02:04:17;;;;;;;0.30;0.10;;;24.20;39.90;;;;;;6288244;27;20153;-43
2022/08/06 02:07:25;;;;;;;0.10;0.10;;;24.20;39.80;;;;;;6282952;27;20313;-42
2022/08/06 02:10:48;;;;;;;0.40;0.20;;;24.20;39.80;;;;;;6275287;27;20038;-40
2022/08/06 02:13:53;;;;;;;0.68;0.20;;;24.20;39.90;;;;;;6305950;27;20473;-41
2022/08/06 02:16:56;;;;;;;0.20;0.10;;;24.20;39.90;;;;;;6303658;27;20676;-41
2022/08/06 02:20:00;;;;;;;0.35;0.13;;;24.10;39.80;;;;;;6308932;27;20489;-41
2022/08/06 02:23:24;;;;;;;0.93;0.20;;;24.10;39.80;;;;;;6316084;27;20316;-40
2022/08/06 02:26:37;;;;;;;0.15;0.10;;;24.00;39.80;;;;;;6300947;27;20515;-40
2022/08/06 02:29:44;;;;;;;0.68;0.15;;;24.20;40.00;;;;;;6303924;27;20131;-41
2022/08/06 02:33:07;;;;;;;0.30;0.20;;;24.10;39.90;;;;;;6283569;27;20899;-41
2022/08/06 02:36:16;;;;;;;0.20;0.20;;;24.20;40.00;;;;;;6304466;27;20338;-43
2022/08/06 02:39:32;;;;;;;0.25;0.10;;;24.20;40.00;;;;;;6281950;27;20051;-43
2022/08/06 02:43:00;;;;;;;0.77;0.30;;;24.10;40.00;;;;;;6301842;27;20826;-40
2022/08/06 02:46:10;;;;;;;0.30;0.15;;;24.00;40.00;;;;;;6310592;27;20225;-43
2022/08/06 02:49:18;;;;;;;0.30;0.20;;;24.10;40.10;;;;;;6312973;27;20342;-43
2022/08/06 02:52:35;;;;;;;0.10;0.10;;;24.00;40.00;;;;;;6310479;27;20391;-42
2022/08/06 02:55:46;;;;;;;0.35;0.10;;;24.00;40.00;;;;;;6309230;27;20463;-42
2022/08/06 02:58:52;;;;;;;0.80;0.10;;;24.00;40.00;;;;;;6313547;27;20085;-41
2022/08/06 03:02:02;;;;;;;0.25;0.13;;;24.00;40.00;;;;;;6276888;27;20601;-42
2022/08/06 03:05:13;;;;;;;0.10;0.10;;;24.00;40.10;;;;;;6286909;27;20052;-39
2022/08/06 03:08:18;;;;;;;0.10;0.10;;;24.20;40.20;;;;;;6305248;27;21033;-41
2022/08/06 03:11:24;;;;;;;0.28;0.10;;;24.00;40.10;;;;;;6301727;27;20035;-41
2022/08/06 03:14:27;;;;;;;0.47;0.10;;;24.00;40.20;;;;;;6286739;27;20039;-40
2022/08/06 03:17:50;;;;;;;0.10;0.10;;;23.90;40.10;;;;;;6288405;27;20050;-41
2022/08/06 03:20:54;;;;;;;0.30;0.15;;;24.00;40.20;;;;;;6285460;27;20251;-41
2022/08/06 03:23:57;;;;;;;0.30;0.20;;;24.00;40.20;;;;;;6307548;27;20362;-40
2022/08/06 03:27:01;;;;;;;0.30;0.10;;;24.10;40.30;;;;;;6297653;27;20047;-41
2022/08/06 03:30:08;;;;;;;0.20;0.10;;;24.00;40.30;;;;;;6292358;27;20042;-41
2022/08/06 03:33:14;;;;;;;0.20;0.20;;;24.00;40.30;;;;;;6309480;27;20291;-43
2022/08/06 03:36:37;;;;;;;0.43;0.32;;;23.80;40.20;;;;;;6288423;27;20421;-40
2022/08/06 03:39:44;;;;;;;0.30;0.20;;;24.00;40.30;;;;;;6307957;27;20254;-43
2022/08/06 03:42:55;;;;;;;0.10;0.10;;;23.90;40.30;;;;;;6300391;27;20509;-41
2022/08/06 03:46:00;;;;;;;0.20;0.20;;;24.10;40.40;;;;;;6311558;27;20161;-43
2022/08/06 03:49:05;;;;;;;0.13;0.10;;;24.00;40.40;;;;;;6314993;27;21043;-41
2022/08/06 03:52:14;;;;;;;0.20;0.13;;;23.80;40.40;;;;;;6305882;27;21057;-43
2022/08/06 03:55:22;;;;;;;0.17;0.13;;;23.90;40.40;;;;;;6310753;27;20616;-40
2022/08/06 03:58:25;;;;;;;0.10;0.10;;;24.00;40.50;;;;;;6292005;27;20099;-40
2022/08/06 04:01:33;;;;;;;0.20;0.17;;;24.00;40.60;;;;;;6311398;27;20962;-41
2022/08/06 04:04:37;;;;;;;0.52;0.10;;;23.90;40.60;;;;;;6312870;27;20338;-43
2022/08/06 04:07:40;;;;;;;0.40;0.10;;;23.80;40.50;;;;;;6290613;27;20043;-42
2022/08/06 04:10:58;;;;;;;0.40;0.20;;;23.80;40.60;;;;;;6289666;27;20047;-43
2022/08/06 04:14:01;;;;;;;0.22;0.10;;;23.90;40.70;;;;;;6290714;27;20973;-41
2022/08/06 04:17:10;;;;;;;0.43;0.10;;;23.80;40.60;;;;;;6296801;27;20865;-40
2022/08/06 04:20:16;;;;;;;0.25;0.10;;;23.80;40.70;;;;;;6295662;27;20525;-40
2022/08/06 04:23:38;;;;;;;0.43;0.10;;;23.70;40.70;;;;;;6265153;27;20085;-40
2022/08/06 04:26:44;;;;;;;0.63;0.20;;;23.80;40.80;;;;;;6297643;27;20993;-42
2022/08/06 04:29:48;;;;;;;0.43;0.10;;;23.70;40.80;;;;;;6298798;27;20073;-42
2022/08/06 04:33:05;;;;;;;0.15;0.10;;;23.80;40.90;;;;;;6291489;27;20070;-41
2022/08/06 04:36:14;;;;;;;0.10;0.10;;;23.70;40.90;;;;;;6287932;27;20319;-40
2022/08/06 04:39:26;;;;;;;0.10;0.10;;;23.80;41.00;;;;;;6305652;27;20415;-40
2022/08/06 04:42:47;;;;;;;0.63;0.20;;;23.80;41.00;;;;;;6281502;27;20035;-40
2022/08/06 04:45:53;;;;;;;0.30;0.13;;;23.70;41.00;;;;;;6316845;27;21107;-40
2022/08/06 04:49:16;;;;;;;0.40;0.10;;;23.80;41.10;;;;;;6273749;27;22095;-41
2022/08/06 04:52:21;;;;;;;0.10;0.10;;;23.90;41.20;;;;;;6284460;27;20043;-40
2022/08/06 04:55:45;;;;;;;0.20;0.10;;;23.80;41.30;;;;;;6275967;27;20558;-41
2022/08/06 04:59:05;;;;;;;0.30;0.20;;;23.80;41.30;;;;;;6268487;27;20564;-40
2022/08/06 05:02:09;;;;;;;0.10;0.10;;;23.80;41.40;;;;;;6301456;27;20494;-43
2022/08/06 05:05:16;;;;;;;0.25;0.10;;;23.70;41.50;;;;;;6282354;27;20604;-40
2022/08/06 05:08:25;;;;;;;0.05;0.05;;;23.70;41.60;;;;;;6293402;27;20119;-40
2022/08/06 05:11:31;;;;;;;0.20;0.10;;;23.60;41.60;;;;;;6317437;27;20043;-40
2022/08/06 05:14:39;;;;;;;0.60;0.20;;;23.60;41.70;;;;;;6300374;27;20050;-41
2022/08/06 05:17:47;;;;;;;0.10;0.10;;;23.70;41.80;;;;;;6298157;27;20098;-40
2022/08/06 05:20:53;;;;;;;0.10;0.10;;;23.70;41.90;;;;;;6314961;27;20391;-41
2022/08/06 05:23:56;;;;;;;0.10;0.10;;;23.70;42.00;;;;;;6306406;27;20070;-41
2022/08/06 05:26:59;;;;;;;0.10;0.10;;;23.60;42.00;;;;;;6309451;27;20051;-40
2022/08/06 05:30:01;;;;;;;0.47;0.20;;;23.70;42.10;;;;;;6314210;27;20692;-40
2022/08/06 05:33:03;;;;;;;0.30;0.10;;;23.60;42.10;;;;;;6288726;27;20047;-40
2022/08/06 05:36:10;;;;;;;0.28;0.20;;;23.70;42.30;;;;;;6292400;27;20315;-41
2022/08/06 05:39:22;;;;;;;0.20;0.20;;;23.70;42.40;;;;;;6312524;27;20604;-40
2022/08/06 05:42:44;;;;;;;0.20;0.10;;;23.70;42.50;;;;;;6296429;27;20042;-42
2022/08/06 05:46:03;;;;;;;0.30;0.13;;;23.70;42.60;;;;;;6310881;27;20434;-41
2022/08/06 05:49:08;;;;;;;0.20;0.13;;;23.50;42.60;;;;;;6314245;27;20421;-43
2022/08/06 05:52:36;;;;;;;0.60;0.28;;;23.70;42.80;;;;;;6304316;27;20038;-41
2022/08/06 05:55:41;;;;;;;0.30;0.10;;;23.70;42.90;;;;;;6292291;27;20043;-42
2022/08/06 05:58:51;;;;;;;0.28;0.10;;;23.70;43.00;;;;;;6311002;27;20094;-41
2022/08/06 06:01:57;;;;;;;0.10;0.10;;;23.70;43.20;;;;;;6307384;27;20086;-41
2022/08/06 06:04:59;;;;;;;0.17;0.10;;;23.60;43.20;;;;;;6305921;27;20119;-42
2022/08/06 06:08:21;;;;;;;0.10;0.10;;;23.70;43.40;;;;;;6290727;27;20307;-40
2022/08/06 06:11:41;;;;;;;0.25;0.10;;;23.70;43.40;;;;;;6303942;27;20420;-41
2022/08/06 06:15:05;;;;;;;0.28;0.10;;;23.70;43.50;;;;;;6300887;27;20313;-42
2022/08/06 06:18:38;;;;;;;0.20;0.13;;;23.50;43.50;;;;;;6267885;27;20205;-40
2022/08/06 06:21:51;;;;;;;0.20;0.10;;;23.70;43.80;;;;;;6305681;27;20208;-40
2022/08/06 06:24:57;;;;;;;0.43;0.20;;;23.70;43.90;;;;;;6308534;27;20975;-41
2022/08/06 06:28:05;;;;;;;0.32;0.15;;;23.70;44.00;;;;;;6313168;27;20046;-41
2022/08/06 06:31:15;;;;;;;0.17;0.10;;;23.70;44.10;;;;;;6308944;27;20111;-40
2022/08/06 06:34:48;;;;;;;0.32;0.10;;;23.60;44.20;;;;;;6291599;27;20050;-41
2022/08/06 06:38:01;;;;;;;0.17;0.10;;;23.70;44.50;;;;;;6307475;27;20049;-41
2022/08/06 06:41:18;;;;;;;0.10;0.10;;;23.70;44.80;;;;;;6307181;27;20047;-40
2022/08/06 06:44:33;;;;;;;0.13;0.13;;;23.70;45.10;;;;;;6291908;27;20161;-41
2022/08/06 06:47:59;;;;;;;0.73;0.20;;;23.70;45.40;;;;;;6285521;27;20991;-41
2022/08/06 06:51:05;;;;;;;0.20;0.20;;;23.70;45.60;;;;;;6314229;27;20342;-40
2022/08/06 06:54:16;;;;;;;0.20;0.20;;;23.70;45.80;;;;;;6308283;27;20046;-42
2022/08/06 06:57:47;;;;;;;0.15;0.15;;;23.70;46.00;;;;;;6293029;27;20620;-44
2022/08/06 07:00:55;;;;;;;0.10;0.10;;;23.70;46.20;;;;;;6311270;27;20079;-42
2022/08/06 07:04:18;;;;;;;0.17;0.10;;;23.70;46.30;;;;;;6295413;27;20050;-41
2022/08/06 07:07:21;;;;;;;0.10;0.10;;;23.70;46.50;;;;;;6309357;27;20408;-41
2022/08/06 07:10:26;;;;;;;0.20;0.10;;;23.70;46.50;;;;;;6283316;27;20343;-40
2022/08/06 07:13:30;;;;;;;0.25;0.20;;;23.80;46.60;;;;;;6298872;27;20681;-42
2022/08/06 07:16:55;;;;;;;0.30;0.20;;;23.70;46.50;;;;;;6286361;27;20054;-41
2022/08/06 07:19:59;;;;;;;0.30;0.10;;;23.60;46.30;;;;;;6297615;27;20054;-40
2022/08/06 07:23:06;;;;;;;0.35;0.20;;;23.80;46.30;;;;;;6299358;27;20070;-41
2022/08/06 07:26:29;;;;;;;0.20;0.10;;;23.80;46.20;;;;;;6281845;27;20216;-42
2022/08/06 07:29:39;;;;;;;0.10;0.10;;;23.80;46.00;;;;;;6301815;27;20303;-44
2022/08/06 07:33:02;;;;;;;0.22;0.10;;;23.80;45.90;;;;;;6291393;27;20260;-41
2022/08/06 07:36:05;;;;;;;0.15;0.10;;;23.70;45.70;;;;;;6306096;27;20158;-41
2022/08/06 07:39:10;;;;;;;0.20;0.10;;;23.80;46.20;;;;;;6306179;27;20341;-42
2022/08/06 07:42:18;;;;;;;0.17;0.10;;;23.70;45.40;;;;;;6309483;27;20082;-40
2022/08/06 07:45:30;;;;;;;0.15;0.10;;;23.90;45.20;;;;;;6314633;27;20847;-40
2022/08/06 07:48:43;;;;;;;0.10;0.10;;;23.70;44.90;;;;;;6320744;27;20125;-41
2022/08/06 07:51:56;;;;;;;0.22;0.20;;;23.70;44.70;;;;;;6301512;27;20035;-42
2022/08/06 07:54:59;;;;;;;0.40;0.10;;;23.80;44.50;;;;;;6319089;27;20050;-41
2022/08/06 07:58:01;;;;;;;0.10;0.10;;;23.90;44.50;;;;;;6321161;27;20043;-41
2022/08/06 08:01:06;;;;;;;0.10;0.10;;;23.90;44.30;;;;;;6319495;27;20047;-40
2022/08/06 08:07:47;;;;;;;0.08;0.08;;;23.90;44.00;;;;;;6304805;27;20043;-40
2022/08/06 08:10:59;;;;;;;0.10;0.10;;;23.80;43.70;;;;;;6320389;27;20059;-40
2022/08/06 08:14:03;;;;;;;0.10;0.10;;;23.70;43.40;;;;;;6324701;27;20063;-40
2022/08/06 08:17:08;;;;;;;0.17;0.15;;;23.80;43.20;;;;;;6328293;27;20094;-40
2022/08/06 08:20:13;;;;;;;0.50;0.20;;;23.70;43.00;;;;;;6326526;27;20038;-40
2022/08/06 08:23:18;;;;;;;0.10;0.10;;;23.80;42.70;;;;;;6323517;27;20046;-40
2022/08/06 08:26:35;;;;;;;0.13;0.13;;;24.00;42.60;;;;;;6322396;27;20055;-41
2022/08/06 08:29:56;;;;;;;0.20;0.10;;;23.90;42.30;;;;;;6303435;27;20051;-40
2022/08/06 08:33:01;;;;;;;0.10;0.10;;;24.20;42.20;;;;;;6318935;27;20043;-40
2022/08/06 08:36:06;;;;;;;0.32;0.10;;;23.90;41.80;;;;;;6319605;27;20195;-43
2022/08/06 08:39:14;;;;;;;0.20;0.20;;;23.90;41.50;;;;;;6320333;27;20673;-41
2022/08/06 08:42:23;;;;;;;0.10;0.10;;;23.80;41.20;;;;;;6312906;27;20031;-41
2022/08/06 08:45:34;;;;;;;0.35;0.10;;;24.00;41.10;;;;;;6299130;27;20147;-43
2022/08/06 08:48:38;;;;;;;0.10;0.10;;;24.00;40.90;;;;;;6304658;27;20119;-42
2022/08/06 08:51:41;;;;;;;0.22;0.10;;;23.90;40.60;;;;;;6323788;27;20047;-41
2022/08/06 08:54:49;;;;;;;0.20;0.20;;;24.10;40.50;;;;;;6307155;27;20154;-42
2022/08/06 08:57:54;;;;;;;0.25;0.10;;;24.00;40.20;;;;;;6308468;27;20035;-40
2022/08/06 09:01:16;;;;;;;0.22;0.10;;;23.90;40.00;;;;;;6298043;27;20043;-40
2022/08/06 09:04:40;;;;;;;0.20;0.10;;;24.00;39.90;;;;;;6304681;27;20043;-41
2022/08/06 09:07:43;;;;;;;0.10;0.10;;;24.00;39.70;;;;;;6318670;27;20047;-41
2022/08/06 09:11:05;;;;;;;0.13;0.10;;;24.00;39.60;;;;;;6323570;27;20043;-41
2022/08/06 09:14:13;;;;;;;0.17;0.10;;;24.10;39.50;;;;;;6322504;27;20074;-40
2022/08/06 09:17:17;;;;;;;0.20;0.10;;;23.80;39.30;;;;;;6326107;27;20133;-43
2022/08/06 09:20:41;;;;;;;0.20;0.10;;;24.10;39.30;;;;;;6306044;27;20053;-42
2022/08/06 09:23:48;;;;;;;0.25;0.15;;;24.20;39.30;;;;;;6321720;27;20042;-40
2022/08/06 09:27:04;;;;;;;0.05;0.00;;;24.20;39.20;;;;;;6319890;27;20039;-41
2022/08/06 09:30:26;;;;;;;0.10;0.10;;;24.20;39.00;;;;;;6309537;27;20274;-40
2022/08/06 09:33:33;;;;;;;0.08;0.08;;;24.20;38.80;;;;;;6317542;27;20039;-41
2022/08/06 09:36:55;;;;;;;0.20;0.10;;;24.10;38.60;;;;;;6272457;27;20042;-41
2022/08/06 09:40:11;;;;;;;0.15;0.10;;;24.20;38.40;;;;;;6315019;27;20065;-41
2022/08/06 09:43:27;;;;;;;0.20;0.10;;;24.20;37.90;;;;;;6314232;27;20047;-42
2022/08/06 09:46:49;;;;;;;0.45;0.20;;;24.20;37.70;;;;;;6305180;27;20129;-41
2022/08/06 09:49:51;;;;;;;0.47;0.10;;;24.20;37.60;;;;;;6323181;27;20951;-41
2022/08/06 09:53:02;;;;;;;0.32;0.30;;;24.20;37.30;;;;;;6323981;27;20043;-41
2022/08/06 09:56:16;;;;;;;0.20;0.20;;;24.30;37.00;;;;;;6315390;27;20153;-40
2022/08/06 09:59:18;;;;;;;0.28;0.10;;;24.20;36.60;;;;;;6316659;27;20039;-42
2022/08/06 10:02:22;;;;;;;0.13;0.10;;;24.20;36.30;;;;;;6315029;27;20459;-42
2022/08/06 10:05:33;;;;;;;0.22;0.17;;;24.40;36.10;;;;;;6299492;27;20376;-42
2022/08/06 10:09:05;;;;;;;0.10;0.10;;;24.30;35.80;;;;;;6301704;27;20301;-40
2022/08/06 10:12:23;;;;;;;0.45;0.10;;;24.30;35.60;;;;;;6303713;27;20062;-43
2022/08/06 10:15:29;;;;;;;0.10;0.10;;;24.20;35.40;;;;;;6285025;27;20508;-40
2022/08/06 10:18:51;;;;;;;0.13;0.10;;;24.30;35.30;;;;;;6284430;27;20199;-41
2022/08/06 10:22:03;;;;;;;0.20;0.20;;;24.20;35.00;;;;;;6300632;27;20412;-41
2022/08/06 10:25:06;;;;;;;0.20;0.10;;;24.40;34.90;;;;;;6301687;27;20485;-41
2022/08/06 10:28:15;;;;;;;0.10;0.10;;;24.30;34.80;;;;;;6305844;27;20164;-41
2022/08/06 10:31:18;;;;;;;0.25;0.10;;;24.30;34.70;;;;;;6301091;27;20051;-40
2022/08/06 10:34:26;;;;;;;0.38;0.20;;;24.30;34.60;;;;;;6270586;27;20449;-43
2022/08/06 10:37:36;;;;;;;;;;;24.20;34.40;;;;;;6271669;27;20059;-40
2022/08/06 10:41:02;;;;;;;0.10;0.10;;;24.30;34.50;;;;;;6283673;27;19937;-40
2022/08/06 10:44:05;;;;;;;0.10;0.10;;;24.30;34.50;;;;;;6301176;27;20046;-41
2022/08/06 10:47:09;;;;;;;0.22;0.10;;;24.30;34.40;;;;;;6285401;27;20280;-40
2022/08/06 10:50:13;;;;;;;0.13;0.10;;;24.10;34.10;;;;;;6305415;27;20047;-41
2022/08/06 10:53:37;;;;;;;0.22;0.17;;;24.30;34.10;;;;;;6273963;27;20658;-41
2022/08/06 10:56:59;;;;;;;0.13;0.10;;;24.30;34.00;;;;;;6289942;27;20610;-42
2022/08/06 11:00:07;;;;;;;0.35;0.10;;;24.50;34.00;;;;;;6309816;27;20157;-43
2022/08/06 11:03:17;;;;;;;0.75;0.10;;;24.40;33.90;;;;;;6306864;27;20488;-41
2022/08/06 11:06:41;;;;;;;0.20;0.10;;;24.50;33.80;;;;;;6285365;27;20802;-41
2022/08/06 11:10:06;;;;;;;0.10;0.10;;;24.40;33.50;;;;;;6301742;27;20153;-40
2022/08/06 11:13:18;;;;;;;0.10;0.10;;;24.30;33.40;;;;;;6305335;27;20449;-41
2022/08/06 11:16:24;;;;;;;0.00;0.00;;;24.30;33.30;;;;;;6298750;27;20464;-41
2022/08/06 11:19:41;;;;;;;0.17;0.17;;;24.30;33.20;;;;;;6299216;27;20829;-40
2022/08/06 11:22:57;;;;;;;0.10;0.10;;;24.40;33.20;;;;;;6278567;27;20274;-43
2022/08/06 11:26:02;;;;;;;0.10;0.10;;;24.30;33.10;;;;;;6301701;27;20873;-42
2022/08/06 11:29:07;;;;;;;0.20;0.10;;;24.30;33.00;;;;;;6310803;27;20100;-40
2022/08/06 11:32:30;;;;;;;0.10;0.10;;;24.40;32.90;;;;;;6289589;27;20126;-40
2022/08/06 11:35:43;;;;;;;0.00;0.00;;;24.40;32.90;;;;;;6305429;27;20333;-40
2022/08/06 11:38:59;;;;;;;0.10;0.00;;;24.50;32.80;;;;;;6309256;27;20052;-43
2022/08/06 11:42:40;;;;;;;0.20;0.05;;;24.40;32.80;;;;;;6308751;27;20246;-40
2022/08/06 11:46:12;;;;;;;0.00;0.00;;;24.50;32.70;;;;;;6291948;27;20039;-42
2022/08/06 11:49:37;;;;;;;0.20;0.10;;;24.70;33.00;;;;;;6291391;27;20055;-41
2022/08/06 11:52:46;;;;;;;0.03;0.03;;;24.40;32.70;;;;;;6290200;27;20329;-40
2022/08/06 11:56:04;;;;;;;0.05;0.03;;;24.40;32.70;;;;;;6309566;27;20180;-42
2022/08/06 11:59:12;;;;;;;0.10;0.10;;;24.50;32.60;;;;;;6309507;27;20051;-41
2022/08/06 12:02:37;;;;;;;0.10;0.10;;;24.40;32.60;;;;;;6301390;27;20031;-42
2022/08/06 12:05:45;;;;;;;0.17;0.10;;;24.50;32.60;;;;;;6290403;27;20038;-42
2022/08/06 12:09:09;;;;;;;0.10;0.10;;;24.50;32.50;;;;;;6283775;27;21276;-43
2022/08/06 12:12:34;;;;;;;0.10;0.10;;;24.50;32.40;;;;;;6286128;27;20105;-42
2022/08/06 12:15:36;;;;;;;0.15;0.10;;;24.60;32.50;;;;;;6301003;27;20051;-40
2022/08/06 12:18:58;;;;;;;0.20;0.10;;;24.50;32.40;;;;;;6287250;27;20043;-44
2022/08/06 12:22:01;;;;;;;0.10;0.05;;;24.50;32.30;;;;;;6286056;27;20832;-40
2022/08/06 12:25:06;;;;;;;0.10;0.10;;;24.50;32.30;;;;;;6299624;27;20039;-40
2022/08/06 12:28:15;;;;;;;0.10;0.10;;;24.60;32.90;;;;;;6281089;27;20092;-41
2022/08/06 12:31:32;;;;;;;0.30;0.20;;;24.70;32.20;;;;;;6298181;27;20168;-41
2022/08/06 12:34:45;;;;;;;0.10;0.10;;;24.50;32.00;;;;;;6297586;27;20617;-40
2022/08/06 12:38:00;;;;;;;0.20;0.20;;;24.60;32.10;;;;;;6298200;27;20039;-42
2022/08/06 12:41:05;;;;;;;0.17;0.10;;;24.50;32.00;;;;;;6296554;27;20065;-40
2022/08/06 12:44:13;;;;;;;0.10;0.10;;;24.60;32.00;;;;;;6279519;27;20119;-40
2022/08/06 12:47:16;;;;;;;0.10;0.10;;;24.60;32.00;;;;;;6288276;27;20065;-41
2022/08/06 12:50:18;;;;;;;0.38;0.17;;;24.50;32.00;;;;;;6303252;27;20158;-41
2022/08/06 12:53:30;;;;;;;0.10;0.10;;;24.50;31.90;;;;;;6309333;27;20817;-41
2022/08/06 12:56:36;;;;;;;0.13;0.10;;;24.60;31.90;;;;;;6303113;27;20321;-41
2022/08/06 12:59:40;;;;;;;0.20;0.10;;;24.60;31.90;;;;;;6291808;27;20150;-41
2022/08/06 13:02:47;;;;;;;0.10;0.10;;;24.60;31.90;;;;;;6307084;27;20384;-40
2022/08/06 13:05:52;;;;;;;0.30;0.10;;;24.50;31.80;;;;;;6310269;27;20264;-41
2022/08/06 13:09:01;;;;;;;0.20;0.20;;;24.60;31.90;;;;;;6289387;27;20314;-40
2022/08/06 13:12:19;;;;;;;0.05;0.05;;;24.60;31.90;;;;;;6281805;27;20169;-42
2022/08/06 13:15:41;;;;;;;0.03;0.03;;;24.70;31.80;;;;;;6276639;27;20145;-41
2022/08/06 13:19:04;;;;;;;0.10;0.10;;;24.70;31.90;;;;;;6300077;27;20464;-41
2022/08/06 13:22:10;;;;;;;0.13;0.10;;;24.70;31.80;;;;;;6299012;27;20243;-43
2022/08/06 13:25:16;;;;;;;0.17;0.10;;;24.70;31.90;;;;;;6301681;27;20477;-41
2022/08/06 13:28:38;;;;;;;0.25;0.10;;;24.70;31.80;;;;;;6274309;27;20581;-42
2022/08/06 13:32:03;;;;;;;0.17;0.15;;;24.70;31.80;;;;;;6289838;27;20352;-42
2022/08/06 13:35:26;;;;;;;0.00;0.00;;;24.70;31.70;;;;;;6287467;27;20069;-41
2022/08/06 13:38:33;;;;;;;0.17;0.10;;;24.80;31.80;;;;;;6300600;27;20439;-41
2022/08/06 13:41:38;;;;;;;0.10;0.10;;;24.70;31.70;;;;;;6299892;27;20272;-43
2022/08/06 13:44:43;;;;;;;0.10;0.00;;;24.70;31.70;;;;;;6304727;27;20438;-42
2022/08/06 13:47:44;;;;;;;0.08;0.08;;;24.60;31.50;;;;;;6284735;27;20483;-40
2022/08/06 13:50:59;;;;;;;0.20;0.10;;;24.80;31.60;;;;;;6302372;27;20720;-41
2022/08/06 13:54:03;;;;;;;0.00;0.00;;;24.70;31.60;;;;;;6303149;27;20330;-41
2022/08/06 13:57:16;;;;;;;0.10;0.10;;;24.80;31.60;;;;;;6285582;27;20275;-41
2022/08/06 14:00:19;;;;;;;0.10;0.10;;;24.70;31.50;;;;;;6300137;27;20483;-41
2022/08/06 14:03:21;;;;;;;0.10;0.10;;;24.80;31.50;;;;;;6300984;27;20552;-42
2022/08/06 14:06:24;;;;;;;0.10;0.10;;;24.70;31.50;;;;;;6301402;27;20949;-43
2022/08/06 14:09:30;;;;;;;0.10;0.10;;;24.70;31.40;;;;;;6298620;27;20306;-44
2022/08/06 14:16:12;;;;;;;0.22;0.10;;;24.70;31.40;;;;;;6287178;27;20406;-45
2022/08/06 14:19:14;;;;;;;0.10;0.10;;;24.70;31.30;;;;;;6283707;27;20158;-43
2022/08/06 14:22:36;;;;;;;;;;;24.90;31.40;;;;;;6287340;27;20449;-42
2022/08/06 14:25:43;;;;;;;0.10;0.10;;;24.90;31.40;;;;;;6301215;27;19927;-40
2022/08/06 14:29:03;;;;;;;0.10;0.08;;;24.80;31.40;;;;;;6286127;27;20051;-39
2022/08/06 14:32:25;;;;;;;0.00;0.00;;;24.70;31.30;;;;;;6286592;27;20476;-40
2022/08/06 14:35:28;;;;;;;0.10;0.10;;;24.70;31.20;;;;;;6298331;27;20047;-41
2022/08/06 14:38:40;;;;;;;0.10;0.10;;;24.90;31.90;;;;;;6282181;27;21317;-42
2022/08/06 14:45:05;;;;;;;0.08;0.08;;;24.90;31.20;;;;;;6301858;27;20085;-41
2022/08/06 14:48:08;;;;;;;0.10;0.10;;;24.90;31.20;;;;;;6303277;27;20154;-42
2022/08/06 14:51:10;;;;;;;0.10;0.10;;;24.80;31.10;;;;;;6298211;27;20160;-40
2022/08/06 14:54:14;;;;;;;0.35;0.10;;;24.80;31.10;;;;;;6297234;27;20203;-44
2022/08/06 14:57:17;;;;;;;0.10;0.10;;;24.80;31.00;;;;;;6281708;27;20486;-42
2022/08/06 15:00:19;;;;;;;0.10;0.00;;;24.80;31.10;;;;;;6300759;27;20051;-42
2022/08/06 15:03:34;;;;;;;0.10;0.10;;;25.00;31.20;;;;;;6299745;27;20334;-40
2022/08/06 15:06:38;;;;;;;0.10;0.10;;;24.80;31.10;;;;;;6296806;27;20213;-42
2022/08/06 15:09:55;;;;;;;0.10;0.00;;;24.70;30.90;;;;;;6296788;27;20157;-41
2022/08/06 15:13:17;;;;;;;;;;;24.90;31.00;;;;;;6283164;27;20261;-40
2022/08/06 15:16:21;;;;;;;0.10;0.10;;;24.90;31.10;;;;;;6300044;27;19931;-43
2022/08/06 15:19:43;;;;;;;0.10;0.10;;;24.90;31.10;;;;;;6286291;27;20362;-40
2022/08/06 15:22:52;;;;;;;0.10;0.10;;;25.00;31.10;;;;;;6298581;27;20082;-42
2022/08/06 15:25:54;;;;;;;0.10;0.10;;;24.90;31.00;;;;;;6276792;27;20082;-40
2022/08/06 15:29:15;;;;;;;0.10;0.10;;;24.80;30.90;;;;;;6284939;27;20315;-43
2022/08/06 15:32:17;;;;;;;0.10;0.10;;;24.90;31.60;;;;;;6300434;27;20038;-43
2022/08/06 15:35:21;;;;;;;0.17;0.17;;;24.90;30.90;;;;;;6300762;27;20287;-40
2022/08/06 15:38:39;;;;;;;0.25;0.10;;;24.90;30.90;;;;;;6284999;27;20120;-41
2022/08/06 15:41:44;;;;;;;0.10;0.10;;;24.90;30.90;;;;;;6300373;27;20413;-42
2022/08/06 15:44:46;;;;;;;0.15;0.10;;;24.80;30.90;;;;;;6302342;27;21188;-40
2022/08/06 15:47:48;;;;;;;0.10;0.10;;;24.90;30.90;;;;;;6301663;27;20105;-42
2022/08/06 15:50:51;;;;;;;0.10;0.10;;;24.90;30.90;;;;;;6302751;27;20038;-41
2022/08/06 15:54:12;;;;;;;0.10;0.10;;;24.90;30.90;;;;;;6285304;27;20146;-41
2022/08/06 15:57:18;;;;;;;0.10;0.10;;;24.90;30.90;;;;;;6297849;27;20462;-42
2022/08/06 16:00:21;;;;;;;0.20;0.10;;;24.90;30.90;;;;;;6298034;27;20387;-42
2022/08/06 16:03:24;;;;;;;0.52;0.17;;;24.90;30.90;;;;;;6298716;27;20436;-41
2022/08/06 16:06:29;;;;;;;0.20;0.20;;;24.90;30.90;;;;;;6296096;27;20272;-42
2022/08/06 16:09:31;;;;;;;0.10;0.10;;;25.00;30.90;;;;;;6300832;27;20271;-41
2022/08/06 16:12:52;;;;;;;;;;;24.90;30.80;;;;;;6282840;27;20651;-40
2022/08/06 16:15:54;;;;;;;0.10;0.10;;;24.80;30.80;;;;;;6298919;27;19927;-41
2022/08/06 16:18:56;;;;;;;0.13;0.10;;;24.90;30.80;;;;;;6298709;27;20044;-42
2022/08/06 16:22:00;;;;;;;0.10;0.10;;;25.00;30.90;;;;;;6281334;27;20421;-40
2022/08/06 16:25:02;;;;;;;0.00;0.00;;;24.90;30.80;;;;;;6296848;27;20043;-42
2022/08/06 16:28:05;;;;;;;0.10;0.10;;;25.00;30.80;;;;;;6296501;27;20453;-40
2022/08/06 16:31:15;;;;;;;0.00;0.00;;;25.00;30.80;;;;;;6265117;27;20047;-41
2022/08/06 16:34:18;;;;;;;0.10;0.10;;;25.00;30.70;;;;;;6298827;27;20046;-42
2022/08/06 16:37:32;;;;;;;0.10;0.10;;;24.90;30.60;;;;;;6284285;27;20217;-41
2022/08/06 16:40:41;;;;;;;0.17;0.10;;;25.10;30.70;;;;;;6302295;27;20362;-41
2022/08/06 16:43:55;;;;;;;0.10;0.10;;;24.90;30.60;;;;;;6301567;27;20657;-41
2022/08/06 16:46:57;;;;;;;0.57;0.20;;;25.00;30.60;;;;;;6307161;27;20089;-41